Windham, NH (03087)

2:32 PM EDT on March 27, 2017 (GMT -0400)
MD8595 | | Change Station

Elev 314 ft 42.82 °N, 71.32 °W | Updated 22 minutes ago

Overcast
Overcast
39.0 °F
Feels Like 39 °F
N
0.0
Wind Variable Wind from NW
Gusts 1.0 mph

Today
High -- | Low -- °F
--% Chance of Precip.
Yesterday
High -- | Low -- °F
Precip. -- in
Pressure 30.07 in
Visibility 5.0 miles
Clouds Overcast 500 ft
Windchill 39 °F
Dew Point 38 °F
Humidity 97%
Rainfall 0.56 in
Snow Depth Not available.
6:35 AM 7:05 PM
Waning Crescent, 0% visible
SPECI KLWM 271817Z 03007KT 5SM -RA BR OVC005 04/04 A3007 RMK AO2 P0002 T00390039
Pressure 30.07 in
Visibility 5.0 miles
Clouds Overcast 500 ft
Windchill 39 °F
Dew Point 38 °F
Humidity 97%
Rainfall 0.56 in
Snow Depth Not available.
6:35 AM 7:05 PM
Waning Crescent, 0% visible
SPECI KLWM 271817Z 03007KT 5SM -RA BR OVC005 04/04 A3007 RMK AO2 P0002 T00390039

Get Severe Weather Alerts

Thanks for signing up!

Be on the lookout for a verification email in your inbox.

You'll start receiving the daily forecast at 8 AM.

×

10-Day Weather Forecast

Almanac

Astronomy

Mar. 27, 2017 Rise Set
Actual Time
Civil Twilight
Nautical Twilight
Astronomical Twilight
Moon
Length of Visible Light
Length of Day
Tomorrow will be .
, % of the Moon is Illuminated

Today's Extremes

State Highs State Lows

Community

WunderPhotos

Upload Photos

1,962,540 photos uploaded!

WunderBlog® & News

Nearby

Air Quality

  Air Quality AQ Index Pollutant
Not available.

Snow Depth

Station Depth Elevation

Earthquake Activity

City Distance Mag. Time & Date
Minimum magnitude displayed is 2.5.

Earthquake Activity

City Distance Mag. Time & Date
Minimum magnitude displayed is 2.5.

Coastal Water Temperatures

Place Temperature

Stations

Nearby Weather Stations

Station Location Temp. Windchill Dew Point Humidity Wind Precip. Elev Updated Type
                   

Watches & Warnings

There are currently no watches in effect.